createdAt,value
2023-04-02T00:00:11.977Z,1.80
2023-04-02T00:02:48.106Z,1.77
2023-04-02T00:05:19.700Z,1.55
2023-04-02T00:07:58.079Z,1.70
2023-04-02T00:10:39.049Z,1.70
2023-04-02T00:13:18.279Z,2.00
2023-04-02T00:15:47.897Z,1.83
2023-04-02T00:18:17.069Z,2.10
2023-04-02T00:20:49.525Z,2.10
2023-04-02T00:23:17.056Z,2.08
2023-04-02T00:25:46.173Z,2.40
2023-04-02T00:28:15.304Z,2.40
2023-04-02T00:30:48.720Z,2.63
2023-04-02T00:33:18.189Z,2.75
2023-04-02T00:35:46.045Z,2.67
2023-04-02T00:38:20.745Z,2.35
2023-04-02T00:40:48.195Z,2.63
2023-04-02T00:43:16.868Z,2.55
2023-04-02T00:45:51.307Z,2.80
2023-04-02T00:48:32.957Z,2.90
2023-04-02T00:51:02.508Z,2.60
2023-04-02T00:53:30.617Z,3.03
2023-04-02T00:56:02.328Z,3.15
2023-04-02T00:58:32.643Z,3.33
2023-04-02T01:01:01.037Z,3.53
2023-04-02T01:03:29.831Z,3.47
2023-04-02T01:06:03.226Z,3.53
2023-04-02T01:08:41.105Z,3.20
2023-04-02T01:11:11.558Z,3.47
2023-04-02T01:13:59.389Z,3.47
2023-04-02T01:16:36.871Z,4.00
2023-04-02T01:19:18.299Z,4.28
2023-04-02T01:21:45.796Z,4.25
2023-04-02T01:24:14.620Z,3.83
2023-04-02T01:26:51.277Z,4.50
2023-04-02T01:29:21.159Z,4.00
2023-04-02T01:31:49.699Z,3.92
2023-04-02T01:34:19.046Z,4.38
2023-04-02T01:36:53.129Z,4.60
2023-04-02T01:39:20.670Z,4.30
2023-04-02T01:41:57.729Z,4.50
2023-04-02T01:44:54.809Z,4.30
2023-04-02T01:47:27.440Z,4.70
2023-04-02T01:49:59.865Z,4.88
2023-04-02T01:52:34.623Z,4.72
2023-04-02T01:55:03.641Z,5.25
2023-04-02T01:57:31.731Z,4.82
2023-04-02T02:00:01.804Z,5.47
2023-04-02T02:02:29.533Z,5.35
2023-04-02T02:04:56.989Z,5.80
2023-04-02T02:07:26.062Z,5.75
2023-04-02T02:09:55.316Z,5.63
2023-04-02T02:12:23.202Z,5.53
2023-04-02T02:14:52.318Z,5.55
2023-04-02T02:17:34.680Z,5.82
2023-04-02T02:20:06.735Z,6.40
2023-04-02T02:22:39.178Z,6.50
2023-04-02T02:25:11.862Z,6.18
2023-04-02T02:28:18.025Z,6.45
2023-04-02T02:30:48.324Z,6.68
2023-04-02T02:33:16.358Z,6.45
2023-04-02T02:35:43.956Z,6.78
2023-04-02T02:38:31.387Z,6.35
2023-04-02T02:41:24.771Z,6.20
2023-04-02T02:43:58.452Z,6.00
2023-04-02T02:46:27.659Z,6.47
2023-04-02T02:48:56.886Z,6.30
2023-04-02T02:51:41.666Z,6.30
2023-04-02T02:54:11.984Z,6.00
2023-04-02T02:56:41.752Z,6.03
2023-04-02T02:59:11.381Z,6.65
2023-04-02T03:01:42.598Z,6.32
2023-04-02T03:04:10.273Z,6.40
2023-04-02T03:06:40.172Z,6.18
2023-04-02T03:09:18.603Z,6.10
2023-04-02T03:12:05.261Z,6.22
2023-04-02T03:14:36.020Z,5.90
2023-04-02T03:17:11.738Z,6.47
2023-04-02T03:22:12.716Z,5.50
2023-04-02T03:24:50.932Z,5.60
2023-04-02T03:27:18.860Z,5.80
2023-04-02T03:30:06.631Z,5.65
2023-04-02T03:32:38.882Z,6.00
2023-04-02T03:35:25.256Z,6.43
2023-04-02T03:37:56.429Z,5.35
2023-04-02T03:40:34.715Z,6.38
2023-04-02T03:43:02.146Z,6.03
2023-04-02T03:45:34.432Z,5.72
2023-04-02T03:48:26.686Z,5.75
2023-04-02T03:51:12.922Z,5.97
2023-04-02T03:53:40.632Z,5.80
2023-04-02T03:56:08.123Z,5.80
2023-04-02T03:58:36.050Z,5.65
2023-04-02T04:01:07.293Z,5.57
2023-04-02T04:03:47.098Z,5.30
2023-04-02T04:06:24.843Z,5.40
2023-04-02T04:08:56.032Z,5.07
2023-04-02T04:11:27.447Z,5.28
2023-04-02T04:14:01.851Z,5.10
2023-04-02T04:16:36.032Z,4.72
2023-04-02T04:19:12.437Z,4.60
2023-04-02T04:21:39.989Z,5.55
2023-04-02T04:24:21.939Z,4.95
2023-04-02T04:26:55.738Z,4.70
2023-04-02T04:29:45.734Z,4.75
2023-04-02T04:32:32.435Z,4.45
2023-04-02T04:35:08.430Z,4.80
2023-04-02T04:37:38.539Z,4.78
2023-04-02T04:40:35.681Z,4.63
2023-04-02T04:43:05.652Z,3.95
2023-04-02T04:45:39.441Z,3.63
2023-04-02T04:48:26.812Z,4.28
2023-04-02T04:51:19.467Z,4.55
2023-04-02T04:53:48.898Z,4.28
2023-04-02T04:56:23.078Z,3.45
2023-04-02T04:59:07.318Z,3.72
2023-04-02T05:01:47.524Z,3.67
2023-04-02T05:04:24.636Z,3.88
2023-04-02T05:07:00.937Z,3.72
2023-04-02T05:12:02.337Z,3.50
2023-04-02T05:14:36.370Z,3.30
2023-04-02T05:17:23.439Z,3.20
2023-04-02T05:19:56.668Z,3.05
2023-04-02T05:22:28.947Z,3.03
2023-04-02T05:25:03.174Z,3.40
2023-04-02T05:27:37.277Z,3.03
2023-04-02T05:30:08.011Z,3.10
2023-04-02T05:32:38.336Z,3.30
2023-04-02T05:35:06.832Z,3.10
2023-04-02T05:37:40.061Z,3.25
2023-04-02T05:40:15.048Z,3.00
2023-04-02T05:42:46.130Z,3.10
2023-04-02T05:45:31.765Z,3.42
2023-04-02T05:48:03.493Z,3.00
2023-04-02T05:50:40.043Z,3.25
2023-04-02T05:53:15.462Z,3.35
2023-04-02T05:56:03.696Z,3.38
2023-04-02T05:58:52.495Z,3.28
2023-04-02T06:01:37.961Z,3.17
2023-04-02T06:04:13.695Z,3.83
2023-04-02T06:06:42.638Z,4.53
2023-04-02T06:09:44.242Z,4.07
2023-04-02T06:12:11.779Z,3.33
2023-04-02T06:14:40.570Z,3.25
2023-04-02T06:17:12.437Z,3.50
2023-04-02T06:19:40.375Z,3.25
2023-04-02T06:22:23.491Z,3.30
2023-04-02T06:25:04.406Z,3.20
2023-04-02T06:27:38.946Z,3.15
2023-04-02T06:30:15.138Z,3.15
2023-04-02T06:32:43.720Z,3.30
2023-04-02T06:35:14.373Z,3.58
2023-04-02T06:37:45.900Z,3.40
2023-04-02T06:40:27.176Z,3.20
2023-04-02T06:42:59.780Z,3.20
2023-04-02T06:45:47.313Z,3.20
2023-04-02T06:48:22.536Z,3.33
2023-04-02T06:51:02.809Z,3.38
2023-04-02T06:56:03.196Z,3.05
2023-04-02T06:58:32.395Z,3.22
2023-04-02T07:01:00.825Z,3.08
2023-04-02T07:03:34.702Z,3.35
2023-04-02T07:06:14.555Z,3.42
2023-04-02T07:08:42.140Z,2.85
2023-04-02T07:11:13.545Z,3.03
2023-04-02T07:13:41.224Z,2.78
2023-04-02T07:16:12.836Z,3.47
2023-04-02T07:18:40.654Z,2.90
2023-04-02T07:21:08.721Z,3.13
2023-04-02T07:23:36.327Z,3.25
2023-04-02T07:26:04.144Z,2.80
2023-04-02T07:28:31.837Z,3.05
2023-04-02T07:30:59.331Z,2.70
2023-04-02T07:33:28.465Z,3.20
2023-04-02T07:35:57.383Z,2.83
2023-04-02T07:38:25.056Z,2.88
2023-04-02T07:40:52.545Z,3.05
2023-04-02T07:43:19.946Z,3.20
2023-04-02T07:45:47.360Z,3.30
2023-04-02T07:48:15.377Z,3.17
2023-04-02T07:50:42.957Z,2.83
2023-04-02T07:53:16.862Z,3.10
2023-04-02T07:55:44.294Z,3.55
2023-04-02T07:58:11.721Z,3.15
2023-04-02T08:00:39.238Z,3.20
2023-04-02T08:03:07.142Z,3.35
2023-04-02T08:05:34.881Z,3.40
2023-04-02T08:08:02.522Z,8.43
2023-04-02T08:10:29.906Z,3.50
2023-04-02T08:12:57.694Z,2.97
2023-04-02T08:15:25.140Z,3.30
2023-04-02T08:17:53.521Z,3.53
2023-04-02T08:20:22.449Z,3.50
2023-04-02T08:22:50.697Z,3.17
2023-04-02T08:25:18.372Z,3.10
2023-04-02T08:27:48.209Z,3.42
2023-04-02T08:30:16.585Z,3.30
2023-04-02T08:32:44.281Z,3.03
2023-04-02T08:35:13.194Z,3.00
2023-04-02T08:37:40.637Z,3.08
2023-04-02T08:40:08.628Z,2.83
2023-04-02T08:42:40.400Z,3.20
2023-04-02T08:45:24.992Z,2.88
2023-04-02T08:47:55.364Z,3.20
2023-04-02T08:50:32.881Z,3.38
2023-04-02T08:53:01.362Z,4.50
2023-04-02T08:55:38.029Z,3.20
2023-04-02T08:58:11.782Z,3.83
2023-04-02T09:00:43.709Z,3.85
2023-04-02T09:03:14.566Z,3.42
2023-04-02T09:05:43.622Z,3.70
2023-04-02T09:08:31.368Z,3.85
2023-04-02T09:11:08.059Z,3.50
2023-04-02T09:13:38.926Z,5.35
2023-04-02T09:16:09.175Z,4.00
2023-04-02T09:18:37.234Z,3.28
2023-04-02T09:21:23.469Z,3.22
2023-04-02T09:23:51.043Z,3.58
2023-04-02T09:26:23.589Z,3.17
2023-04-02T09:29:11.007Z,5.50
2023-04-02T09:31:47.067Z,10.18
2023-04-02T09:34:29.815Z,3.05
2023-04-02T09:36:57.797Z,3.05
2023-04-02T09:39:26.685Z,3.00
2023-04-02T09:42:04.979Z,2.83
2023-04-02T09:44:33.506Z,3.00
2023-04-02T09:47:05.676Z,3.58
2023-04-02T09:49:40.803Z,2.67
2023-04-02T09:52:13.474Z,6.18
2023-04-02T09:54:44.326Z,8.90
2023-04-02T09:57:27.384Z,67.05
2023-04-02T10:00:12.362Z,5.07
2023-04-02T10:02:47.000Z,11.32
2023-04-02T10:05:39.893Z,4.18
2023-04-02T10:08:10.513Z,7.55
2023-04-02T10:10:45.365Z,7.15
2023-04-02T10:13:15.600Z,5.50
2023-04-02T10:16:21.918Z,26.27
2023-04-02T10:19:00.759Z,6.25
2023-04-02T10:21:37.284Z,2.90
2023-04-02T10:24:11.535Z,5.32
2023-04-02T10:26:58.846Z,22.70
2023-04-02T10:29:32.642Z,4.55
2023-04-02T10:32:17.771Z,2.65
2023-04-02T10:34:58.480Z,2.28
2023-04-02T10:37:44.209Z,8.13
2023-04-02T10:40:15.765Z,4.40
2023-04-02T10:42:52.946Z,2.28
2023-04-02T10:45:26.244Z,3.08
2023-04-02T10:48:11.964Z,2.30
2023-04-02T10:50:39.532Z,2.10
2023-04-02T10:53:06.868Z,2.30
2023-04-02T10:55:39.750Z,1.65
2023-04-02T10:58:09.292Z,2.22
2023-04-02T11:00:40.262Z,1.95
2023-04-02T11:03:14.091Z,1.63
2023-04-02T11:05:46.768Z,1.60
2023-04-02T11:08:29.465Z,2.22
2023-04-02T11:11:04.340Z,1.33
2023-04-02T11:13:36.228Z,1.90
2023-04-02T11:16:03.897Z,1.50
2023-04-02T11:18:38.677Z,2.05
2023-04-02T11:23:35.147Z,1.60
2023-04-02T11:26:21.596Z,1.75
2023-04-02T11:28:48.986Z,4.88
2023-04-02T11:31:22.869Z,1.40
2023-04-02T11:33:50.487Z,4.88
2023-04-02T11:36:40.905Z,1.65
2023-04-02T11:39:17.055Z,11.32
2023-04-02T11:42:22.274Z,21.90
2023-04-02T11:44:49.922Z,2.20
2023-04-02T11:47:20.568Z,1.70
2023-04-02T11:50:08.519Z,2.05
2023-04-02T11:52:36.129Z,2.70
2023-04-02T11:55:06.767Z,37.45
2023-04-02T11:57:34.373Z,1.90
2023-04-02T12:00:34.540Z,5.05
2023-04-02T12:03:11.837Z,6.43
2023-04-02T12:06:03.740Z,3.92
2023-04-02T12:08:54.378Z,1.92
2023-04-02T12:11:34.584Z,1.40
2023-04-02T12:14:02.499Z,1.58
2023-04-02T12:16:33.775Z,1.60
2023-04-02T12:19:01.672Z,1.30
2023-04-02T12:21:31.152Z,1.30
2023-04-02T12:23:59.671Z,1.55
2023-04-02T12:26:32.308Z,1.45
2023-04-02T12:29:15.633Z,1.38
2023-04-02T12:31:49.276Z,1.80
2023-04-02T12:34:17.723Z,1.30
2023-04-02T12:37:14.778Z,1.58
2023-04-02T12:39:52.292Z,1.20
2023-04-02T12:42:27.434Z,1.42
2023-04-02T12:44:54.992Z,1.70
2023-04-02T12:47:22.491Z,1.00
2023-04-02T12:49:51.252Z,1.15
2023-04-02T12:52:19.720Z,0.90
2023-04-02T12:54:53.367Z,1.13
2023-04-02T12:57:31.465Z,1.35
2023-04-02T13:00:00.918Z,1.77
2023-04-02T13:02:29.840Z,1.30
2023-04-02T13:05:00.866Z,1.40
2023-04-02T13:07:30.280Z,1.10
2023-04-02T13:10:01.969Z,1.10
2023-04-02T13:12:41.819Z,1.70
2023-04-02T13:15:19.057Z,1.25
2023-04-02T13:17:48.837Z,1.35
2023-04-02T13:20:42.393Z,1.15
2023-04-02T13:23:28.237Z,1.20
2023-04-02T13:26:13.999Z,1.23
2023-04-02T13:28:41.694Z,1.08
2023-04-02T13:31:16.198Z,1.40
2023-04-02T13:33:43.783Z,1.10
2023-04-02T13:36:17.365Z,1.10
2023-04-02T13:38:44.840Z,0.90
2023-04-02T13:41:23.633Z,1.38
2023-04-02T13:43:51.678Z,1.40
2023-04-02T13:46:27.047Z,1.02
2023-04-02T13:48:55.303Z,0.93
2023-04-02T13:51:24.599Z,1.33
2023-04-02T13:53:54.638Z,1.10
2023-04-02T13:56:23.428Z,1.45
2023-04-02T13:58:51.435Z,1.38
2023-04-02T14:01:20.595Z,1.45
2023-04-02T14:03:48.124Z,1.38
2023-04-02T14:06:21.160Z,1.15
2023-04-02T14:09:11.408Z,1.20
2023-04-02T14:11:50.161Z,1.20
2023-04-02T14:14:35.246Z,1.10
2023-04-02T14:17:08.631Z,0.93
2023-04-02T14:19:39.021Z,1.10
2023-04-02T14:22:23.083Z,1.23
2023-04-02T14:24:53.966Z,2.90
2023-04-02T14:27:37.932Z,1.45
2023-04-02T14:30:10.160Z,1.40
2023-04-02T14:32:37.788Z,1.50
2023-04-02T14:35:20.565Z,2.33
2023-04-02T14:38:00.665Z,1.65
2023-04-02T14:40:32.548Z,1.45
2023-04-02T14:43:12.775Z,1.20
2023-04-02T14:45:53.333Z,1.38
2023-04-02T14:48:27.075Z,1.20
2023-04-02T14:50:59.225Z,1.50
2023-04-02T14:53:37.331Z,1.23
2023-04-02T14:56:06.717Z,1.45
2023-04-02T14:58:35.807Z,1.85
2023-04-02T15:01:03.199Z,1.30
2023-04-02T15:03:33.931Z,1.40
2023-04-02T15:06:03.974Z,1.25
2023-04-02T15:08:35.799Z,2.53
2023-04-02T15:11:08.808Z,5.15
2023-04-02T15:13:44.934Z,2.80
2023-04-02T15:16:15.603Z,2.65
2023-04-02T15:18:43.247Z,4.93
2023-04-02T15:21:17.264Z,3.72
2023-04-02T15:23:44.751Z,2.67
2023-04-02T15:26:32.490Z,2.72
2023-04-02T15:29:04.245Z,2.70
2023-04-02T15:31:33.901Z,2.30
2023-04-02T15:34:17.153Z,2.33
2023-04-02T15:36:52.559Z,2.00
2023-04-02T15:39:32.173Z,2.00
2023-04-02T15:42:02.882Z,1.70
2023-04-02T15:44:30.746Z,1.98
2023-04-02T15:47:10.003Z,1.98
2023-04-02T15:50:02.810Z,2.20
2023-04-02T15:52:40.821Z,1.88
2023-04-02T15:55:17.479Z,2.00
2023-04-02T15:58:03.470Z,1.95
2023-04-02T16:00:35.333Z,2.00
2023-04-02T16:03:23.070Z,2.40
2023-04-02T16:05:56.644Z,1.90
2023-04-02T16:08:24.095Z,2.28
2023-04-02T16:10:51.496Z,2.15
2023-04-02T16:13:20.773Z,1.85
2023-04-02T16:16:08.567Z,2.10
2023-04-02T16:18:42.707Z,2.40
2023-04-02T16:21:11.659Z,2.87
2023-04-02T16:23:40.525Z,3.08
2023-04-02T16:26:23.453Z,2.80
2023-04-02T16:28:56.139Z,2.20
2023-04-02T16:31:29.808Z,2.38
2023-04-02T16:34:03.445Z,2.00
2023-04-02T16:36:47.068Z,1.88
2023-04-02T16:39:14.559Z,2.15
2023-04-02T16:42:00.878Z,2.20
2023-04-02T16:44:46.906Z,2.20
2023-04-02T16:47:21.917Z,2.10
2023-04-02T16:52:46.410Z,2.13
2023-04-02T16:55:13.965Z,2.10
2023-04-02T16:57:44.780Z,2.47
2023-04-02T17:00:12.438Z,2.30
2023-04-02T17:02:42.991Z,2.47
2023-04-02T17:05:13.597Z,3.00
2023-04-02T17:07:40.995Z,8.43
2023-04-02T17:10:30.157Z,11.20
2023-04-02T17:13:04.011Z,10.60
2023-04-02T17:15:38.063Z,7.90
2023-04-02T17:18:17.331Z,7.32
2023-04-02T17:20:44.967Z,4.72
2023-04-02T17:23:14.088Z,4.47
2023-04-02T17:26:07.990Z,4.07
2023-04-02T17:28:38.972Z,6.13
2023-04-02T17:31:11.486Z,4.88
2023-04-02T17:33:38.999Z,4.47
2023-04-02T17:36:06.483Z,4.75
2023-04-02T17:38:59.209Z,5.50
2023-04-02T17:41:37.448Z,5.32
2023-04-02T17:44:17.242Z,5.35
2023-04-02T17:46:54.065Z,5.75
2023-04-02T17:49:29.289Z,5.78
2023-04-02T17:52:16.816Z,11.80
2023-04-02T17:54:52.728Z,13.13
2023-04-02T17:57:26.429Z,12.75
2023-04-02T17:59:55.295Z,10.82
2023-04-02T18:02:41.322Z,13.73
2023-04-02T18:05:21.306Z,12.48
2023-04-02T18:07:54.904Z,10.82
2023-04-02T18:10:24.924Z,11.73
2023-04-02T18:13:01.022Z,10.10
2023-04-02T18:15:28.587Z,18.63
2023-04-02T18:18:02.207Z,16.10
2023-04-02T18:20:32.778Z,10.80
2023-04-02T18:23:20.534Z,13.38
2023-04-02T18:25:54.834Z,13.70
2023-04-02T18:28:34.289Z,12.85
2023-04-02T18:31:01.931Z,13.20
2023-04-02T18:33:32.367Z,12.18
2023-04-02T18:36:09.088Z,12.02
2023-04-02T18:38:55.456Z,10.65
2023-04-02T18:41:31.981Z,11.35
2023-04-02T18:44:19.170Z,10.60
2023-04-02T18:46:57.021Z,14.90
2023-04-02T18:49:24.792Z,14.43
2023-04-02T18:51:55.802Z,14.05
2023-04-02T18:54:29.181Z,40.45
2023-04-02T18:56:56.855Z,27.42
2023-04-02T18:59:37.560Z,22.35
2023-04-02T19:02:23.925Z,30.70
2023-04-02T19:04:58.079Z,23.42
2023-04-02T19:07:29.802Z,26.00
2023-04-02T19:10:01.630Z,25.23
2023-04-02T19:12:33.791Z,22.90
2023-04-02T19:15:01.567Z,25.75
2023-04-02T19:17:33.732Z,29.95
2023-04-02T19:20:12.580Z,28.08
2023-04-02T19:23:06.290Z,27.55
2023-04-02T19:25:39.055Z,21.20
2023-04-02T19:28:15.456Z,19.25
2023-04-02T19:31:01.679Z,13.55
2023-04-02T19:33:55.765Z,13.48
2023-04-02T19:36:39.310Z,16.30
2023-04-02T19:39:14.682Z,14.30
2023-04-02T19:41:42.443Z,11.23
2023-04-02T19:44:11.851Z,13.52
2023-04-02T19:46:40.824Z,12.57
2023-04-02T19:49:11.426Z,13.32
2023-04-02T19:51:38.917Z,13.32
2023-04-02T19:54:06.366Z,13.98
2023-04-02T19:56:34.151Z,14.73
2023-04-02T19:59:07.711Z,11.93
2023-04-02T20:01:44.402Z,15.50
2023-04-02T20:04:11.880Z,13.90
2023-04-02T20:06:39.436Z,14.40
2023-04-02T20:09:08.434Z,13.68
2023-04-02T20:11:36.649Z,17.73
2023-04-02T20:14:04.263Z,16.38
2023-04-02T20:16:32.877Z,16.38
2023-04-02T20:19:01.415Z,15.73
2023-04-02T20:21:34.657Z,17.27
2023-04-02T20:24:02.081Z,15.15
2023-04-02T20:26:30.082Z,11.38
2023-04-02T20:28:57.512Z,9.35
2023-04-02T20:31:25.021Z,8.10
2023-04-02T20:33:55.784Z,7.65
2023-04-02T20:36:24.685Z,7.47
2023-04-02T20:38:52.575Z,7.55
2023-04-02T20:41:21.493Z,6.43
2023-04-02T20:43:50.024Z,5.82
2023-04-02T20:46:17.957Z,4.95
2023-04-02T20:48:45.704Z,4.97
2023-04-02T20:51:14.850Z,4.30
2023-04-02T20:53:42.451Z,4.22
2023-04-02T20:56:11.702Z,4.10
2023-04-02T20:58:40.029Z,4.40
2023-04-02T21:01:08.809Z,4.28
2023-04-02T21:03:36.334Z,4.63
2023-04-02T21:06:04.235Z,4.63
2023-04-02T21:08:31.748Z,4.25
2023-04-02T21:11:03.232Z,4.25
2023-04-02T21:13:31.954Z,4.20
2023-04-02T21:16:00.254Z,4.25
2023-04-02T21:18:27.751Z,4.28
2023-04-02T21:21:02.711Z,4.40
2023-04-02T21:23:30.873Z,3.85
2023-04-02T21:26:03.383Z,3.67
2023-04-02T21:28:31.287Z,4.00
2023-04-02T21:31:12.289Z,3.78
2023-04-02T21:33:41.111Z,3.60
2023-04-02T21:36:13.019Z,3.65
2023-04-02T21:38:48.401Z,3.80
2023-04-02T21:41:17.499Z,3.63
2023-04-02T21:43:46.166Z,4.13
2023-04-02T21:46:13.704Z,3.40
2023-04-02T21:48:41.934Z,3.67
2023-04-02T21:51:09.485Z,4.30
2023-04-02T21:53:36.982Z,4.22
2023-04-02T21:56:05.914Z,5.13
2023-04-02T21:58:33.525Z,4.65
2023-04-02T22:01:01.446Z,5.95
2023-04-02T22:03:31.966Z,6.93
2023-04-02T22:06:03.360Z,4.07
2023-04-02T22:08:30.891Z,3.33
2023-04-02T22:10:58.562Z,3.08
2023-04-02T22:13:26.230Z,3.28
2023-04-02T22:15:53.742Z,3.50
2023-04-02T22:18:21.197Z,3.58
2023-04-02T22:20:48.602Z,3.90
2023-04-02T22:23:15.984Z,3.17
2023-04-02T22:25:43.488Z,3.53
2023-04-02T22:28:10.961Z,3.70
2023-04-02T22:30:38.730Z,3.30
2023-04-02T22:33:07.032Z,3.60
2023-04-02T22:35:34.447Z,3.80
2023-04-02T22:38:01.833Z,3.75
2023-04-02T22:40:29.729Z,3.80
2023-04-02T22:42:57.387Z,4.03
2023-04-02T22:45:24.955Z,3.80
2023-04-02T22:47:52.399Z,4.05
2023-04-02T22:50:20.297Z,3.65
2023-04-02T22:52:47.719Z,3.72
2023-04-02T22:55:15.709Z,4.28
2023-04-02T22:57:43.873Z,4.22
2023-04-02T23:00:13.014Z,4.47
2023-04-02T23:02:40.872Z,4.10
2023-04-02T23:05:08.884Z,4.13
2023-04-02T23:07:36.494Z,4.60
2023-04-02T23:10:05.810Z,4.03
2023-04-02T23:12:33.476Z,4.63
2023-04-02T23:15:02.152Z,4.20
2023-04-02T23:17:29.780Z,4.40
2023-04-02T23:19:57.260Z,4.50
2023-04-02T23:22:24.635Z,4.22
2023-04-02T23:24:54.557Z,4.55
2023-04-02T23:27:22.517Z,4.18
2023-04-02T23:29:50.406Z,4.25
2023-04-02T23:32:19.404Z,4.38
2023-04-02T23:34:46.901Z,4.72
2023-04-02T23:37:14.434Z,4.72
2023-04-02T23:39:41.828Z,4.43
2023-04-02T23:42:09.528Z,4.43
2023-04-02T23:44:37.096Z,4.60
2023-04-02T23:47:04.881Z,4.57
2023-04-02T23:49:32.488Z,4.50
2023-04-02T23:51:59.866Z,4.57
2023-04-02T23:54:27.370Z,4.35
2023-04-02T23:56:54.819Z,4.63
2023-04-02T23:59:22.277Z,4.63
